sensor_id;sensor_type;location;lat;lon;timestamp;pressure;altitude;pressure_sealevel;temperature;humidity
23635;BME280;11994;51.038;16.974;2023-04-08T14:30:07;100860.69;;;11.05;69.32
23635;BME280;11994;51.038;16.974;2023-04-08T14:32:33;100863.23;;;10.99;68.66
23635;BME280;11994;51.038;16.974;2023-04-08T14:34:58;100858.04;;;10.95;68.58
23635;BME280;11994;51.038;16.974;2023-04-08T14:37:23;100855.41;;;10.95;68.66
23635;BME280;11994;51.038;16.974;2023-04-08T14:39:49;100853.13;;;10.95;68.75
23635;BME280;11994;51.038;16.974;2023-04-08T14:42:34;100854.84;;;10.98;68.88
23635;BME280;11994;51.038;16.974;2023-04-08T14:45:00;100853.77;;;11.00;69.03
23635;BME280;11994;51.038;16.974;2023-04-08T14:47:26;100857.87;;;11.06;68.95
23635;BME280;11994;51.038;16.974;2023-04-08T14:49:51;100860.60;;;11.11;68.86
23635;BME280;11994;51.038;16.974;2023-04-08T14:52:16;100863.21;;;11.11;68.70
23635;BME280;11994;51.038;16.974;2023-04-08T14:54:42;100862.36;;;11.11;68.71
23635;BME280;11994;51.038;16.974;2023-04-08T14:57:09;100856.94;;;11.09;68.69
23635;BME280;11994;51.038;16.974;2023-04-08T14:59:34;100858.04;;;11.06;68.47
23635;BME280;11994;51.038;16.974;2023-04-08T15:02:00;100855.60;;;11.06;68.31
23635;BME280;11994;51.038;16.974;2023-04-08T15:04:25;100854.55;;;11.06;67.62
23635;BME280;11994;51.038;16.974;2023-04-08T15:06:50;100856.64;;;11.07;67.32
23635;BME280;11994;51.038;16.974;2023-04-08T15:09:21;100857.66;;;11.08;67.32
23635;BME280;11994;51.038;16.974;2023-04-08T15:22:02;100860.02;;;11.25;67.43
23635;BME280;11994;51.038;16.974;2023-04-08T15:24:27;100858.13;;;11.23;67.03
23635;BME280;11994;51.038;16.974;2023-04-08T15:26:52;100859.50;;;11.25;67.07
23635;BME280;11994;51.038;16.974;2023-04-08T15:29:18;100860.02;;;11.25;67.16
23635;BME280;11994;51.038;16.974;2023-04-08T15:31:43;100860.00;;;11.26;67.22
23635;BME280;11994;51.038;16.974;2023-04-08T15:34:08;100862.11;;;11.25;67.01
23635;BME280;11994;51.038;16.974;2023-04-08T15:36:34;100862.52;;;11.23;67.27
23635;BME280;11994;51.038;16.974;2023-04-08T15:39:01;100862.55;;;11.20;67.15
23635;BME280;11994;51.038;16.974;2023-04-08T15:41:27;100865.58;;;11.18;67.20
23635;BME280;11994;51.038;16.974;2023-04-08T15:43:53;100867.19;;;11.14;66.86
23635;BME280;11994;51.038;16.974;2023-04-08T15:46:19;100867.08;;;11.10;67.25
23635;BME280;11994;51.038;16.974;2023-04-08T15:48:46;100868.31;;;11.10;67.11
23635;BME280;11994;51.038;16.974;2023-04-08T15:51:11;100871.14;;;11.08;67.12
23635;BME280;11994;51.038;16.974;2023-04-08T15:53:41;100871.70;;;11.06;66.92
23635;BME280;11994;51.038;16.974;2023-04-08T15:56:13;100867.89;;;11.03;66.96
23635;BME280;11994;51.038;16.974;2023-04-08T15:58:39;100868.08;;;11.02;66.92
23635;BME280;11994;51.038;16.974;2023-04-08T16:01:04;100870.16;;;11.04;67.24
23635;BME280;11994;51.038;16.974;2023-04-08T16:03:30;100864.71;;;11.05;67.32
23635;BME280;11994;51.038;16.974;2023-04-08T16:05:55;100867.16;;;11.05;66.74
23635;BME280;11994;51.038;16.974;2023-04-08T16:08:21;100870.67;;;11.05;67.14
23635;BME280;11994;51.038;16.974;2023-04-08T16:10:48;100871.20;;;11.05;66.99
23635;BME280;11994;51.038;16.974;2023-04-08T16:13:13;100875.20;;;11.06;67.24
23635;BME280;11994;51.038;16.974;2023-04-08T16:15:39;100873.96;;;11.07;67.30
23635;BME280;11994;51.038;16.974;2023-04-08T16:18:04;100879.55;;;11.08;67.44
23635;BME280;11994;51.038;16.974;2023-04-08T16:20:30;100873.92;;;11.09;67.56
23635;BME280;11994;51.038;16.974;2023-04-08T16:22:56;100880.91;;;11.09;67.36
23635;BME280;11994;51.038;16.974;2023-04-08T16:25:21;100880.77;;;11.08;67.21
23635;BME280;11994;51.038;16.974;2023-04-08T16:27:47;100877.28;;;11.07;67.39
23635;BME280;11994;51.038;16.974;2023-04-08T16:30:13;100878.67;;;11.08;67.34
23635;BME280;11994;51.038;16.974;2023-04-08T16:32:38;100879.53;;;11.10;67.48
23635;BME280;11994;51.038;16.974;2023-04-08T16:35:05;100879.70;;;11.10;67.61
23635;BME280;11994;51.038;16.974;2023-04-08T16:37:31;100876.91;;;11.10;67.58
23635;BME280;11994;51.038;16.974;2023-04-08T16:39:57;100879.87;;;11.10;67.74
23635;BME280;11994;51.038;16.974;2023-04-08T16:42:22;100880.57;;;11.11;67.62
23635;BME280;11994;51.038;16.974;2023-04-08T16:44:47;100883.73;;;11.09;67.62
23635;BME280;11994;51.038;16.974;2023-04-08T16:47:13;100886.20;;;11.08;67.58
23635;BME280;11994;51.038;16.974;2023-04-08T16:49:38;100887.27;;;11.07;67.61
23635;BME280;11994;51.038;16.974;2023-04-08T16:52:03;100890.08;;;11.06;67.72
23635;BME280;11994;51.038;16.974;2023-04-08T16:54:29;100894.09;;;11.07;67.83
23635;BME280;11994;51.038;16.974;2023-04-08T16:56:54;100893.93;;;11.06;67.69
23635;BME280;11994;51.038;16.974;2023-04-08T16:59:21;100895.89;;;11.04;67.64
23635;BME280;11994;51.038;16.974;2023-04-08T17:01:46;100896.27;;;11.02;67.57
23635;BME280;11994;51.038;16.974;2023-04-08T17:04:12;100893.31;;;11.00;67.68
23635;BME280;11994;51.038;16.974;2023-04-08T17:06:39;100897.52;;;10.99;67.64
23635;BME280;11994;51.038;16.974;2023-04-08T17:09:04;100899.64;;;10.98;67.62
23635;BME280;11994;51.038;16.974;2023-04-08T17:11:30;100901.58;;;10.97;67.67
23635;BME280;11994;51.038;16.974;2023-04-08T17:13:56;100905.81;;;10.95;67.66
23635;BME280;11994;51.038;16.974;2023-04-08T17:16:21;100906.17;;;10.94;67.58
23635;BME280;11994;51.038;16.974;2023-04-08T17:18:46;100910.57;;;10.92;67.37
23635;BME280;11994;51.038;16.974;2023-04-08T17:21:12;100907.13;;;10.89;67.44
23635;BME280;11994;51.038;16.974;2023-04-08T17:23:40;100910.64;;;10.88;67.39
23635;BME280;11994;51.038;16.974;2023-04-08T17:26:07;100908.41;;;10.85;67.23
23635;BME280;11994;51.038;16.974;2023-04-08T17:28:33;100909.64;;;10.84;67.38
23635;BME280;11994;51.038;16.974;2023-04-08T17:30:58;100912.66;;;10.82;67.24
23635;BME280;11994;51.038;16.974;2023-04-08T17:33:24;100913.73;;;10.80;67.15
23635;BME280;11994;51.038;16.974;2023-04-08T17:35:53;100919.16;;;10.79;67.29
23635;BME280;11994;51.038;16.974;2023-04-08T17:38:19;100924.27;;;10.76;67.08
23635;BME280;11994;51.038;16.974;2023-04-08T17:40:45;100927.81;;;10.73;67.13
23635;BME280;11994;51.038;16.974;2023-04-08T17:43:11;100929.25;;;10.69;67.24
23635;BME280;11994;51.038;16.974;2023-04-08T17:45:37;100926.16;;;10.66;67.21
23635;BME280;11994;51.038;16.974;2023-04-08T17:48:03;100928.98;;;10.62;67.38
23635;BME280;11994;51.038;16.974;2023-04-08T17:50:31;100929.23;;;10.58;67.29
23635;BME280;11994;51.038;16.974;2023-04-08T17:52:56;100935.92;;;10.54;67.25
23635;BME280;11994;51.038;16.974;2023-04-08T17:55:22;100934.54;;;10.51;67.35
23635;BME280;11994;51.038;16.974;2023-04-08T17:57:47;100932.81;;;10.49;67.58
23635;BME280;11994;51.038;16.974;2023-04-08T18:00:14;100935.30;;;10.46;67.51
23635;BME280;11994;51.038;16.974;2023-04-08T18:02:40;100934.09;;;10.43;67.50
23635;BME280;11994;51.038;16.974;2023-04-08T18:05:06;100937.98;;;10.40;67.56
23635;BME280;11994;51.038;16.974;2023-04-08T18:07:32;100945.71;;;10.38;67.79
23635;BME280;11994;51.038;16.974;2023-04-08T18:09:57;100949.23;;;10.35;67.84
23635;BME280;11994;51.038;16.974;2023-04-08T18:12:23;100954.36;;;10.31;68.01
23635;BME280;11994;51.038;16.974;2023-04-08T18:14:50;100956.83;;;10.28;68.09
23635;BME280;11994;51.038;16.974;2023-04-08T18:17:15;100956.32;;;10.27;68.31
23635;BME280;11994;51.038;16.974;2023-04-08T18:19:41;100958.09;;;10.25;68.48
23635;BME280;11994;51.038;16.974;2023-04-08T18:22:06;100958.28;;;10.23;68.47
23635;BME280;11994;51.038;16.974;2023-04-08T18:24:32;100963.55;;;10.19;68.76
23635;BME280;11994;51.038;16.974;2023-04-08T18:26:57;100968.82;;;10.18;68.79
23635;BME280;11994;51.038;16.974;2023-04-08T18:29:22;100966.93;;;10.14;68.67
23635;BME280;11994;51.038;16.974;2023-04-08T18:31:48;100971.50;;;10.11;68.88
23635;BME280;11994;51.038;16.974;2023-04-08T18:34:13;100975.05;;;10.07;68.89
23635;BME280;11994;51.038;16.974;2023-04-08T18:36:38;100973.48;;;10.03;68.97
23635;BME280;11994;51.038;16.974;2023-04-08T18:39:04;100973.66;;;10.00;69.10
23635;BME280;11994;51.038;16.974;2023-04-08T18:41:29;100976.31;;;9.97;69.26
23635;BME280;11994;51.038;16.974;2023-04-08T18:43:55;100975.80;;;9.95;69.33
23635;BME280;11994;51.038;16.974;2023-04-08T18:46:20;100978.11;;;9.92;69.39
23635;BME280;11994;51.038;16.974;2023-04-08T18:48:47;100978.66;;;9.89;69.43
23635;BME280;11994;51.038;16.974;2023-04-08T18:51:14;100978.52;;;9.85;69.52
23635;BME280;11994;51.038;16.974;2023-04-08T18:53:41;100975.38;;;9.84;69.61
23635;BME280;11994;51.038;16.974;2023-04-08T18:56:13;100980.44;;;9.84;69.77
23635;BME280;11994;51.038;16.974;2023-04-08T18:58:39;100983.95;;;9.82;69.87
23635;BME280;11994;51.038;16.974;2023-04-08T19:01:08;100985.21;;;9.79;69.89
23635;BME280;11994;51.038;16.974;2023-04-08T19:03:36;100985.92;;;9.77;69.84
23635;BME280;11994;51.038;16.974;2023-04-08T19:06:06;100984.55;;;9.74;70.05
23635;BME280;11994;51.038;16.974;2023-04-08T19:08:31;100987.87;;;9.73;70.06
23635;BME280;11994;51.038;16.974;2023-04-08T19:10:56;100985.27;;;9.70;70.18
23635;BME280;11994;51.038;16.974;2023-04-08T19:13:22;100988.09;;;9.67;70.24
23635;BME280;11994;51.038;16.974;2023-04-08T19:15:48;100987.92;;;9.65;70.41
23635;BME280;11994;51.038;16.974;2023-04-08T19:18:14;100988.66;;;9.61;70.42
23635;BME280;11994;51.038;16.974;2023-04-08T19:20:39;100990.95;;;9.58;70.54
23635;BME280;11994;51.038;16.974;2023-04-08T19:23:05;100982.25;;;9.53;70.71
23635;BME280;11994;51.038;16.974;2023-04-08T19:25:31;100986.10;;;9.52;70.88
23635;BME280;11994;51.038;16.974;2023-04-08T19:27:57;100984.00;;;9.53;70.92
23635;BME280;11994;51.038;16.974;2023-04-08T19:30:22;100985.23;;;9.52;71.00
23635;BME280;11994;51.038;16.974;2023-04-08T19:32:48;100985.06;;;9.50;71.11
23635;BME280;11994;51.038;16.974;2023-04-08T19:35:13;100983.67;;;9.47;71.14
23635;BME280;11994;51.038;16.974;2023-04-08T19:37:39;100984.23;;;9.44;71.15
23635;BME280;11994;51.038;16.974;2023-04-08T19:40:08;100980.58;;;9.40;71.32
23635;BME280;11994;51.038;16.974;2023-04-08T19:42:33;100986.73;;;9.37;71.32
23635;BME280;11994;51.038;16.974;2023-04-08T19:45:00;100985.70;;;9.32;71.51
23635;BME280;11994;51.038;16.974;2023-04-08T19:47:26;100986.25;;;9.28;71.47
23635;BME280;11994;51.038;16.974;2023-04-08T19:49:51;100988.55;;;9.24;71.63
23635;BME280;11994;51.038;16.974;2023-04-08T19:52:17;100992.73;;;9.23;71.71
23635;BME280;11994;51.038;16.974;2023-04-08T19:54:42;100989.60;;;9.23;71.76
23635;BME280;11994;51.038;16.974;2023-04-08T19:57:08;100989.07;;;9.22;71.83
23635;BME280;11994;51.038;16.974;2023-04-08T19:59:35;100992.39;;;9.21;71.97
23635;BME280;11994;51.038;16.974;2023-04-08T20:02:01;100992.75;;;9.19;72.05
23635;BME280;11994;51.038;16.974;2023-04-08T20:04:28;100993.29;;;9.18;72.20
23635;BME280;11994;51.038;16.974;2023-04-08T20:06:53;100992.60;;;9.16;72.20
23635;BME280;11994;51.038;16.974;2023-04-08T20:09:18;100992.79;;;9.13;72.33
23635;BME280;11994;51.038;16.974;2023-04-08T20:11:44;100995.77;;;9.09;72.55
23635;BME280;11994;51.038;16.974;2023-04-08T20:14:09;100997.53;;;9.06;72.59
23635;BME280;11994;51.038;16.974;2023-04-08T20:16:35;100995.27;;;9.06;72.86
23635;BME280;11994;51.038;16.974;2023-04-08T20:19:00;100993.88;;;9.04;73.13
23635;BME280;11994;51.038;16.974;2023-04-08T20:21:25;100989.70;;;9.02;73.23
23635;BME280;11994;51.038;16.974;2023-04-08T20:23:51;100989.71;;;9.00;73.29
23635;BME280;11994;51.038;16.974;2023-04-08T20:26:17;100990.41;;;8.98;73.69
23635;BME280;11994;51.038;16.974;2023-04-08T20:28:43;100988.50;;;8.95;73.64
23635;BME280;11994;51.038;16.974;2023-04-08T20:31:10;100987.65;;;8.94;73.71
23635;BME280;11994;51.038;16.974;2023-04-08T20:33:35;100988.17;;;8.92;73.91
23635;BME280;11994;51.038;16.974;2023-04-08T20:36:07;100984.16;;;8.89;74.01
23635;BME280;11994;51.038;16.974;2023-04-08T20:38:33;100986.26;;;8.89;74.11
23635;BME280;11994;51.038;16.974;2023-04-08T20:41:00;100984.52;;;8.90;74.21
23635;BME280;11994;51.038;16.974;2023-04-08T20:43:26;100981.20;;;8.89;74.24
23635;BME280;11994;51.038;16.974;2023-04-08T20:45:51;100984.36;;;8.86;74.52
23635;BME280;11994;51.038;16.974;2023-04-08T20:48:17;100984.18;;;8.84;74.42
23635;BME280;11994;51.038;16.974;2023-04-08T20:50:42;100983.33;;;8.82;74.60
23635;BME280;11994;51.038;16.974;2023-04-08T20:53:09;100985.95;;;8.80;74.68
23635;BME280;11994;51.038;16.974;2023-04-08T20:55:34;100987.17;;;8.78;74.66
23635;BME280;11994;51.038;16.974;2023-04-08T20:57:59;100990.15;;;8.76;74.73
23635;BME280;11994;51.038;16.974;2023-04-08T21:00:29;100990.50;;;8.77;74.81
23635;BME280;11994;51.038;16.974;2023-04-08T21:02:55;100991.20;;;8.77;74.81
23635;BME280;11994;51.038;16.974;2023-04-08T21:05:20;100993.29;;;8.77;74.96
23635;BME280;11994;51.038;16.974;2023-04-08T21:07:46;100996.25;;;8.76;75.08
23635;BME280;11994;51.038;16.974;2023-04-08T21:10:11;100994.69;;;8.73;75.14
23635;BME280;11994;51.038;16.974;2023-04-08T21:12:38;100998.55;;;8.72;75.13
23635;BME280;11994;51.038;16.974;2023-04-08T21:15:04;101001.15;;;8.69;75.22
23635;BME280;11994;51.038;16.974;2023-04-08T21:17:29;101001.34;;;8.67;75.25
23635;BME280;11994;51.038;16.974;2023-04-08T21:19:55;100997.52;;;8.65;75.37
23635;BME280;11994;51.038;16.974;2023-04-08T21:22:20;100996.29;;;8.65;75.40
23635;BME280;11994;51.038;16.974;2023-04-08T21:24:46;100998.02;;;8.66;75.54
23635;BME280;11994;51.038;16.974;2023-04-08T21:27:11;100998.38;;;8.67;75.48
23635;BME280;11994;51.038;16.974;2023-04-08T21:29:36;100997.69;;;8.66;75.63
23635;BME280;11994;51.038;16.974;2023-04-08T21:32:02;100999.79;;;8.65;75.60
23635;BME280;11994;51.038;16.974;2023-04-08T21:34:28;101000.30;;;8.64;75.79
23635;BME280;11994;51.038;16.974;2023-04-08T21:36:53;100996.64;;;8.62;75.68
23635;BME280;11994;51.038;16.974;2023-04-08T21:39:18;100998.92;;;8.61;75.80
23635;BME280;11994;51.038;16.974;2023-04-08T21:41:44;101002.05;;;8.59;75.82
23635;BME280;11994;51.038;16.974;2023-04-08T21:44:09;100999.61;;;8.60;75.85
23635;BME280;11994;51.038;16.974;2023-04-08T21:46:34;100997.69;;;8.61;75.81
23635;BME280;11994;51.038;16.974;2023-04-08T21:49:00;100997.00;;;8.62;75.97
23635;BME280;11994;51.038;16.974;2023-04-08T21:51:26;100998.92;;;8.60;76.06
23635;BME280;11994;51.038;16.974;2023-04-08T21:53:51;100999.96;;;8.60;76.03
23635;BME280;11994;51.038;16.974;2023-04-08T21:56:17;100999.98;;;8.56;76.16
23635;BME280;11994;51.038;16.974;2023-04-08T21:58:42;100998.06;;;8.54;76.21
23635;BME280;11994;51.038;16.974;2023-04-08T22:01:08;100997.02;;;8.52;76.20
23635;BME280;11994;51.038;16.974;2023-04-08T22:03:33;100992.65;;;8.53;76.21
23635;BME280;11994;51.038;16.974;2023-04-08T22:05:59;100992.14;;;8.54;76.25
23635;BME280;11994;51.038;16.974;2023-04-08T22:08:24;100989.34;;;8.53;76.44
23635;BME280;11994;51.038;16.974;2023-04-08T22:10:49;100992.65;;;8.53;76.35
23635;BME280;11994;51.038;16.974;2023-04-08T22:13:15;100989.89;;;8.50;76.51
23635;BME280;11994;51.038;16.974;2023-04-08T22:15:42;100988.67;;;8.48;76.60
23635;BME280;11994;51.038;16.974;2023-04-08T22:18:08;100984.48;;;8.46;76.59
23635;BME280;11994;51.038;16.974;2023-04-08T22:20:33;100982.75;;;8.43;76.63
23635;BME280;11994;51.038;16.974;2023-04-08T22:22:58;100976.83;;;8.41;76.59
23635;BME280;11994;51.038;16.974;2023-04-08T22:25:24;100977.52;;;8.42;76.68
23635;BME280;11994;51.038;16.974;2023-04-08T22:27:49;100975.95;;;8.41;76.77
23635;BME280;11994;51.038;16.974;2023-04-08T22:30:15;100973.16;;;8.39;76.83
23635;BME280;11994;51.038;16.974;2023-04-08T22:32:41;100975.79;;;8.37;76.91
23635;BME280;11994;51.038;16.974;2023-04-08T22:35:06;100975.79;;;8.35;76.92
23635;BME280;11994;51.038;16.974;2023-04-08T22:37:32;100973.36;;;8.31;76.96
23635;BME280;11994;51.038;16.974;2023-04-08T22:40:01;100973.36;;;8.28;76.96
23635;BME280;11994;51.038;16.974;2023-04-08T22:42:26;100976.67;;;8.28;77.10
23635;BME280;11994;51.038;16.974;2023-04-08T22:44:51;100977.03;;;8.28;77.18
23635;BME280;11994;51.038;16.974;2023-04-08T22:47:17;100976.16;;;8.28;77.19
23635;BME280;11994;51.038;16.974;2023-04-08T22:49:42;100974.42;;;8.26;77.32
23635;BME280;11994;51.038;16.974;2023-04-08T22:52:08;100977.21;;;8.24;77.46
23635;BME280;11994;51.038;16.974;2023-04-08T22:54:34;100978.25;;;8.23;77.45
23635;BME280;11994;51.038;16.974;2023-04-08T22:56:59;100973.02;;;8.20;77.48
23635;BME280;11994;51.038;16.974;2023-04-08T22:59:25;100980.66;;;8.18;77.50
23635;BME280;11994;51.038;16.974;2023-04-08T23:01:51;100977.88;;;8.17;77.59
23635;BME280;11994;51.038;16.974;2023-04-08T23:04:16;100974.39;;;8.18;77.66
23635;BME280;11994;51.038;16.974;2023-04-08T23:06:41;100979.98;;;8.16;77.62
23635;BME280;11994;51.038;16.974;2023-04-08T23:09:07;100979.98;;;8.15;77.72
23635;BME280;11994;51.038;16.974;2023-04-08T23:11:32;100981.71;;;8.14;77.85
23635;BME280;11994;51.038;16.974;2023-04-08T23:13:57;100983.11;;;8.12;77.82
23635;BME280;11994;51.038;16.974;2023-04-08T23:16:23;100979.45;;;8.08;77.96
23635;BME280;11994;51.038;16.974;2023-04-08T23:18:48;100980.16;;;8.09;78.04
23635;BME280;11994;51.038;16.974;2023-04-08T23:21:14;100981.72;;;8.10;77.96
23635;BME280;11994;51.038;16.974;2023-04-08T23:23:39;100978.23;;;8.09;78.07
23635;BME280;11994;51.038;16.974;2023-04-08T23:26:05;100980.85;;;8.06;78.24
23635;BME280;11994;51.038;16.974;2023-04-08T23:28:30;100979.46;;;8.04;78.16
23635;BME280;11994;51.038;16.974;2023-04-08T23:30:55;100978.77;;;8.01;78.34
23635;BME280;11994;51.038;16.974;2023-04-08T23:33:21;100980.69;;;7.99;78.36
23635;BME280;11994;51.038;16.974;2023-04-08T23:35:46;100977.38;;;7.96;78.41
23635;BME280;11994;51.038;16.974;2023-04-08T23:38:12;100973.55;;;7.97;78.44
23635;BME280;11994;51.038;16.974;2023-04-08T23:40:37;100969.89;;;7.98;78.56
23635;BME280;11994;51.038;16.974;2023-04-08T23:43:02;100969.20;;;7.98;78.64
23635;BME280;11994;51.038;16.974;2023-04-08T23:45:28;100964.84;;;7.97;78.62
23635;BME280;11994;51.038;16.974;2023-04-08T23:47:53;100967.28;;;7.96;78.62
23635;BME280;11994;51.038;16.974;2023-04-08T23:50:18;100965.70;;;7.94;78.70
23635;BME280;11994;51.038;16.974;2023-04-08T23:52:46;100959.97;;;7.93;78.69
23635;BME280;11994;51.038;16.974;2023-04-08T23:55:11;100958.92;;;7.90;78.78
23635;BME280;11994;51.038;16.974;2023-04-08T23:57:40;100957.88;;;7.90;78.72
